createdAt,value
2023-01-12T00:02:01.223Z,97395.63
2023-01-12T00:04:30.967Z,97398.72
2023-01-12T00:07:00.157Z,97406.13
2023-01-12T00:09:28.078Z,97412.50
2023-01-12T00:11:55.503Z,97414.00
2023-01-12T00:14:22.936Z,97420.41
2023-01-12T00:16:50.224Z,97410.72
2023-01-12T00:19:21.053Z,97412.94
2023-01-12T00:24:44.828Z,97420.28
2023-01-12T00:27:20.661Z,97420.31
2023-01-12T00:29:49.874Z,97422.63
2023-01-12T00:32:20.195Z,97413.63
2023-01-12T00:34:47.658Z,97418.41
2023-01-12T00:37:15.273Z,97421.47
2023-01-12T00:39:53.262Z,97414.41
2023-01-12T00:42:42.799Z,97419.22
2023-01-12T00:45:23.030Z,97413.47
2023-01-12T00:47:51.002Z,97414.66
2023-01-12T00:50:19.601Z,97420.13
2023-01-12T00:52:47.162Z,97410.59
2023-01-12T00:55:14.567Z,97420.78
2023-01-12T00:57:41.787Z,97428.63
2023-01-12T01:00:10.082Z,97427.97
2023-01-12T01:02:37.437Z,97430.44
2023-01-12T01:05:05.102Z,97439.91
2023-01-12T01:07:32.388Z,97439.66
2023-01-12T01:09:59.675Z,97434.06
2023-01-12T01:12:26.984Z,97444.50
2023-01-12T01:14:54.103Z,97445.31
2023-01-12T01:17:21.376Z,97438.25
2023-01-12T01:19:48.555Z,97446.03
2023-01-12T01:22:15.926Z,97444.34
2023-01-12T01:24:43.156Z,97446.03
2023-01-12T01:27:10.467Z,97442.06
2023-01-12T01:29:37.702Z,97440.00
2023-01-12T01:32:05.537Z,97439.56
2023-01-12T01:34:33.126Z,97433.31
2023-01-12T01:37:00.563Z,97436.72
2023-01-12T01:39:27.953Z,97437.50
2023-01-12T01:41:55.262Z,97447.72
2023-01-12T01:44:31.720Z,97447.72
2023-01-12T01:47:12.581Z,97443.59
2023-01-12T01:49:56.206Z,97454.53
2023-01-12T01:52:28.662Z,97453.84
2023-01-12T01:55:09.036Z,97453.78
2023-01-12T01:57:52.912Z,97458.44
2023-01-12T02:00:21.089Z,97460.31
2023-01-12T02:02:49.046Z,97461.28
2023-01-12T02:05:25.871Z,97472.59
2023-01-12T02:07:54.126Z,97462.56
2023-01-12T02:10:22.011Z,97462.69
2023-01-12T02:13:09.610Z,97469.63
2023-01-12T02:16:20.771Z,97472.84
2023-01-12T02:19:15.190Z,97467.00
2023-01-12T02:22:38.538Z,97479.44
2023-01-12T02:25:17.593Z,97471.69
2023-01-12T02:28:06.038Z,97477.59
2023-01-12T02:30:58.553Z,97470.31
2023-01-12T02:34:17.162Z,97468.50
2023-01-12T02:37:18.679Z,97474.19
2023-01-12T02:40:12.185Z,97469.72
2023-01-12T02:42:57.434Z,97476.47
2023-01-12T02:45:58.435Z,97484.56
2023-01-12T02:48:38.667Z,97477.03
2023-01-12T02:51:21.663Z,97478.06
2023-01-12T02:54:27.124Z,97476.91
2023-01-12T02:57:00.662Z,97483.75
2023-01-12T02:59:32.940Z,97486.38
2023-01-12T03:02:15.186Z,97472.47
2023-01-12T03:04:42.684Z,97479.00
2023-01-12T03:07:15.565Z,97472.25
2023-01-12T03:09:51.168Z,97481.13
2023-01-12T03:12:29.001Z,97491.84
2023-01-12T03:15:02.302Z,97495.81
2023-01-12T03:17:38.959Z,97497.53
2023-01-12T03:20:41.424Z,97492.75
2023-01-12T03:23:17.543Z,97500.94
2023-01-12T03:25:45.748Z,97492.63
2023-01-12T03:28:16.744Z,97498.22
2023-01-12T03:30:55.655Z,97486.97
2023-01-12T03:33:25.150Z,97487.28
2023-01-12T03:36:17.312Z,97480.91
2023-01-12T03:39:06.734Z,97487.03
2023-01-12T03:42:10.095Z,97477.00
2023-01-12T03:44:46.994Z,97472.56
2023-01-12T03:47:28.242Z,97479.19
2023-01-12T03:50:14.786Z,97478.97
2023-01-12T03:52:45.616Z,97484.75
2023-01-12T03:55:15.913Z,97485.19
2023-01-12T03:57:44.836Z,97482.16
2023-01-12T04:00:14.612Z,97487.06
2023-01-12T04:02:45.818Z,97485.56
2023-01-12T04:05:14.888Z,97482.13
2023-01-12T04:07:42.197Z,97486.69
2023-01-12T04:10:10.205Z,97481.00
2023-01-12T04:12:37.430Z,97473.72
2023-01-12T04:15:06.207Z,97482.03
2023-01-12T04:17:33.739Z,97483.63
2023-01-12T04:20:00.987Z,97484.06
2023-01-12T04:22:43.468Z,97490.81
2023-01-12T04:25:13.623Z,97492.97
2023-01-12T04:27:57.103Z,97493.31
2023-01-12T04:30:27.275Z,97488.63
2023-01-12T04:32:56.137Z,97490.69
2023-01-12T04:35:24.757Z,97506.88
2023-01-12T04:37:52.737Z,97507.22
2023-01-12T04:40:20.576Z,97507.63
2023-01-12T04:43:10.026Z,97506.53
2023-01-12T04:45:41.685Z,97516.00
2023-01-12T04:48:12.116Z,97523.53
2023-01-12T04:50:40.787Z,97518.50
2023-01-12T04:53:11.292Z,97525.00
2023-01-12T04:55:41.253Z,97517.47
2023-01-12T04:58:09.689Z,97522.84
2023-01-12T05:00:37.060Z,97519.19
2023-01-12T05:03:04.334Z,97530.13
2023-01-12T05:05:33.711Z,97531.84
2023-01-12T05:08:21.803Z,97534.22
2023-01-12T05:10:54.891Z,97532.38
2023-01-12T05:13:23.530Z,97528.50
2023-01-12T05:15:50.835Z,97530.34
2023-01-12T05:18:18.585Z,97526.72
2023-01-12T05:20:45.858Z,97526.59
2023-01-12T05:23:13.126Z,97525.22
2023-01-12T05:25:40.331Z,97530.47
2023-01-12T05:28:07.467Z,97538.09
2023-01-12T05:30:34.853Z,97531.84
2023-01-12T05:33:02.135Z,97543.91
2023-01-12T05:35:29.433Z,97537.63
2023-01-12T05:37:57.194Z,97535.72
2023-01-12T05:40:25.099Z,97535.13
2023-01-12T05:43:11.005Z,97530.25
2023-01-12T05:45:38.474Z,97544.13
2023-01-12T05:48:06.104Z,97543.09
2023-01-12T05:50:33.351Z,97535.38
2023-01-12T05:53:10.781Z,97534.78
2023-01-12T05:55:38.706Z,97540.03
2023-01-12T05:58:06.207Z,97539.38
2023-01-12T06:00:33.520Z,97529.44
2023-01-12T06:03:02.983Z,97537.28
2023-01-12T06:05:30.393Z,97535.72
2023-01-12T06:07:59.196Z,97540.03
2023-01-12T06:10:26.775Z,97529.31
2023-01-12T06:13:12.749Z,97531.13
2023-01-12T06:15:40.290Z,97545.44
2023-01-12T06:18:07.665Z,97546.59
2023-01-12T06:20:35.071Z,97545.34
2023-01-12T06:23:05.045Z,97545.69
2023-01-12T06:25:32.943Z,97543.34
2023-01-12T06:28:00.351Z,97553.94
2023-01-12T06:30:27.596Z,97554.38
2023-01-12T06:32:54.898Z,97559.41
2023-01-12T06:35:22.154Z,97559.06
2023-01-12T06:37:49.319Z,97561.09
2023-01-12T06:40:16.728Z,97559.28
2023-01-12T06:42:43.913Z,97549.47
2023-01-12T06:45:12.383Z,97548.81
2023-01-12T06:47:52.266Z,97557.44
2023-01-12T06:50:19.732Z,97561.44
2023-01-12T06:52:46.983Z,97568.28
2023-01-12T06:55:14.660Z,97565.06
2023-01-12T06:57:41.966Z,97563.56
2023-01-12T07:00:12.712Z,97569.53
2023-01-12T07:02:40.190Z,97561.00
2023-01-12T07:05:07.723Z,97567.72
2023-01-12T07:07:39.283Z,97569.09
2023-01-12T07:10:07.955Z,97565.56
2023-01-12T07:12:35.134Z,97572.06
2023-01-12T07:15:03.884Z,97579.00
2023-01-12T07:17:31.637Z,97574.97
2023-01-12T07:19:58.846Z,97575.28
2023-01-12T07:22:27.098Z,97578.94
2023-01-12T07:24:56.022Z,97587.25
2023-01-12T07:27:24.245Z,97578.50
2023-01-12T07:29:51.476Z,97586.56
2023-01-12T07:32:18.842Z,97589.63
2023-01-12T07:34:46.164Z,97592.22
2023-01-12T07:37:13.401Z,97595.28
2023-01-12T07:39:40.561Z,97589.78
2023-01-12T07:42:23.645Z,97592.50
2023-01-12T07:44:52.602Z,97596.72
2023-01-12T07:47:20.181Z,97597.50
2023-01-12T07:49:47.480Z,97599.28
2023-01-12T07:52:15.102Z,97605.00
2023-01-12T07:54:42.419Z,97613.16
2023-01-12T07:57:13.482Z,97602.84
2023-01-12T07:59:40.856Z,97609.03
2023-01-12T08:02:16.549Z,97598.88
2023-01-12T08:04:45.085Z,97601.94
2023-01-12T08:07:13.595Z,97607.66
2023-01-12T08:09:40.903Z,97617.91
2023-01-12T08:12:08.348Z,97615.81
2023-01-12T08:14:38.261Z,97611.91
2023-01-12T08:17:14.810Z,97612.63
2023-01-12T08:20:01.390Z,97612.47
2023-01-12T08:22:36.493Z,97609.72
2023-01-12T08:25:15.222Z,97621.53
2023-01-12T08:27:48.009Z,97614.50
2023-01-12T08:30:21.481Z,97618.81
2023-01-12T08:32:48.904Z,97632.28
2023-01-12T08:35:21.738Z,97639.09
2023-01-12T08:37:49.200Z,97639.56
2023-01-12T08:40:16.560Z,97630.94
2023-01-12T08:42:44.474Z,97639.38
2023-01-12T08:45:12.076Z,97640.16
2023-01-12T08:47:40.851Z,97650.34
2023-01-12T08:50:09.326Z,97650.16
2023-01-12T08:52:36.818Z,97646.78
2023-01-12T08:55:04.637Z,97643.41
2023-01-12T08:57:31.891Z,97644.97
2023-01-12T08:59:59.139Z,97642.22
2023-01-12T09:02:27.198Z,97628.13
2023-01-12T09:04:54.773Z,97617.09
2023-01-12T09:07:22.280Z,97623.31
2023-01-12T09:09:49.810Z,97612.16
2023-01-12T09:12:17.096Z,97611.66
2023-01-12T09:14:44.403Z,97622.22
2023-01-12T09:17:11.565Z,97621.13
2023-01-12T09:19:38.827Z,97617.41
2023-01-12T09:22:06.114Z,97613.69
2023-01-12T09:24:33.472Z,97608.38
2023-01-12T09:27:01.498Z,97611.69
2023-01-12T09:29:28.829Z,97615.06
2023-01-12T09:31:56.121Z,97600.66
2023-01-12T09:34:23.447Z,97604.03
2023-01-12T09:36:52.507Z,97593.91
2023-01-12T09:39:27.330Z,97584.06
2023-01-12T09:42:15.203Z,97594.47
2023-01-12T09:45:11.656Z,97603.69
2023-01-12T09:47:52.774Z,97600.22
2023-01-12T09:50:52.591Z,97589.66
2023-01-12T09:53:28.928Z,97584.16
2023-01-12T09:56:15.376Z,97567.78
2023-01-12T09:59:32.440Z,97570.16
2023-01-12T10:02:00.191Z,97557.50
2023-01-12T10:04:27.567Z,97561.66
2023-01-12T10:06:55.276Z,97563.81
2023-01-12T10:09:23.530Z,97558.19
2023-01-12T10:12:28.591Z,97557.78
2023-01-12T10:15:53.395Z,97559.44
2023-01-12T10:18:36.584Z,97554.44
2023-01-12T10:21:11.139Z,97564.63
2023-01-12T10:23:38.473Z,97560.97
2023-01-12T10:26:25.649Z,97556.19
2023-01-12T10:28:55.629Z,97551.44
2023-01-12T10:31:25.949Z,97546.59
2023-01-12T10:34:07.134Z,97539.72
2023-01-12T10:36:43.844Z,97558.84
2023-01-12T10:39:40.617Z,97554.63
2023-01-12T10:42:43.783Z,97554.06
2023-01-12T10:45:20.962Z,97549.28
2023-01-12T10:47:51.055Z,97545.66
2023-01-12T10:50:25.547Z,97528.16
2023-01-12T10:53:07.359Z,97529.78
2023-01-12T10:55:39.733Z,97533.16
2023-01-12T10:58:26.494Z,97534.44
2023-01-12T11:00:54.221Z,97532.84
2023-01-12T11:03:40.929Z,97541.97
2023-01-12T11:06:31.766Z,97535.28
2023-01-12T11:09:16.901Z,97530.84
2023-01-12T11:11:44.288Z,97521.94
2023-01-12T11:14:25.733Z,97520.41
2023-01-12T11:16:53.184Z,97528.06
2023-01-12T11:19:43.375Z,97526.59
2023-01-12T11:22:18.701Z,97520.38
2023-01-12T11:24:57.241Z,97527.78
2023-01-12T11:27:58.848Z,97515.00
2023-01-12T11:30:30.163Z,97515.31
2023-01-12T11:33:08.818Z,97505.00
2023-01-12T11:35:51.552Z,97506.22
2023-01-12T11:38:28.321Z,97505.22
2023-01-12T11:40:58.722Z,97506.47
2023-01-12T11:43:50.018Z,97502.03
2023-01-12T11:46:29.194Z,97486.66
2023-01-12T11:49:15.784Z,97495.25
2023-01-12T11:51:43.916Z,97486.59
2023-01-12T11:54:18.490Z,97482.84
2023-01-12T11:57:25.281Z,97486.94
2023-01-12T12:00:15.885Z,97477.09
2023-01-12T12:03:19.310Z,97474.59
2023-01-12T12:06:10.453Z,97475.06
2023-01-12T12:08:43.979Z,97469.25
2023-01-12T12:11:26.232Z,97460.44
2023-01-12T12:14:26.660Z,97462.13
2023-01-12T12:17:04.689Z,97459.59
2023-01-12T12:19:49.844Z,97464.03
2023-01-12T12:22:41.864Z,97457.66
2023-01-12T12:25:36.933Z,97452.84
2023-01-12T12:28:36.340Z,97447.59
2023-01-12T12:31:25.678Z,97448.22
2023-01-12T12:34:27.931Z,97444.13
2023-01-12T12:37:22.629Z,97442.59
2023-01-12T12:40:01.230Z,97451.16
2023-01-12T12:43:13.869Z,97433.53
2023-01-12T12:46:14.106Z,97433.44
2023-01-12T12:49:02.992Z,97433.84
2023-01-12T12:51:34.689Z,97408.25
2023-01-12T12:54:07.711Z,97411.44
2023-01-12T12:56:37.133Z,97415.94
2023-01-12T12:59:05.079Z,97418.22
2023-01-12T13:01:36.988Z,97417.66
2023-01-12T13:04:10.707Z,97415.84
2023-01-12T13:06:49.411Z,97405.06
2023-01-12T13:09:16.687Z,97412.56
2023-01-12T13:12:00.644Z,97407.75
2023-01-12T13:14:36.219Z,97407.28
2023-01-12T13:17:19.823Z,97405.31
2023-01-12T13:20:06.254Z,97402.53
2023-01-12T13:22:50.442Z,97396.00
2023-01-12T13:25:19.509Z,97391.56
2023-01-12T13:28:00.178Z,97386.25
2023-01-12T13:30:30.359Z,97388.91
2023-01-12T13:33:16.025Z,97389.94
2023-01-12T13:35:46.727Z,97393.06
2023-01-12T13:38:25.884Z,97386.94
2023-01-12T13:41:01.367Z,97387.28
2023-01-12T13:43:34.964Z,97376.41
2023-01-12T13:46:15.045Z,97367.63
2023-01-12T13:48:52.029Z,97376.59
2023-01-12T13:51:44.754Z,97367.56
2023-01-12T13:54:17.344Z,97369.84
2023-01-12T13:56:56.255Z,97372.63
2023-01-12T13:59:25.322Z,97372.91
2023-01-12T14:01:53.009Z,97364.44
2023-01-12T14:04:37.165Z,97362.69
2023-01-12T14:07:17.629Z,97355.78
2023-01-12T14:10:33.123Z,97358.00
2023-01-12T14:13:40.375Z,97356.28
2023-01-12T14:16:33.505Z,97346.44
2023-01-12T14:19:01.061Z,97353.13
2023-01-12T14:21:34.810Z,97346.28
2023-01-12T14:24:22.509Z,97355.19
2023-01-12T14:26:49.973Z,97344.25
2023-01-12T14:29:17.242Z,97339.31
2023-01-12T14:31:52.033Z,97342.84
2023-01-12T14:34:53.037Z,97354.97
2023-01-12T14:37:31.598Z,97349.22
2023-01-12T14:39:59.323Z,97354.28
2023-01-12T14:42:45.730Z,97349.84
2023-01-12T14:45:50.028Z,97354.47
2023-01-12T14:48:28.892Z,97358.78
2023-01-12T14:51:32.656Z,97364.31
2023-01-12T14:54:29.892Z,97351.78
2023-01-12T14:57:34.186Z,97360.00
2023-01-12T15:00:03.279Z,97364.16
2023-01-12T15:02:42.919Z,97365.50
2023-01-12T15:05:10.129Z,97369.28
2023-01-12T15:08:01.662Z,97364.56
2023-01-12T15:10:39.448Z,97369.59
2023-01-12T15:13:33.085Z,97365.31
2023-01-12T15:16:20.669Z,97370.09
2023-01-12T15:19:07.002Z,97374.81
2023-01-12T15:21:55.226Z,97376.31
2023-01-12T15:24:50.415Z,97376.09
2023-01-12T15:27:21.377Z,97367.97
2023-01-12T15:29:48.708Z,97369.81
2023-01-12T15:32:48.819Z,97374.97
2023-01-12T15:35:24.147Z,97373.78
2023-01-12T15:37:57.037Z,97374.50
2023-01-12T15:40:27.255Z,97370.69
2023-01-12T15:42:54.715Z,97370.91
2023-01-12T15:45:38.271Z,97376.88
2023-01-12T15:48:06.631Z,97376.09
2023-01-12T15:50:34.413Z,97370.13
2023-01-12T15:53:02.450Z,97364.56
2023-01-12T15:55:36.068Z,97367.31
2023-01-12T15:58:03.563Z,97361.50
2023-01-12T16:00:31.150Z,97354.44
2023-01-12T16:02:58.380Z,97355.56
2023-01-12T16:05:28.816Z,97351.88
2023-01-12T16:07:56.291Z,97347.53
2023-01-12T16:10:24.069Z,97349.03
2023-01-12T16:12:51.319Z,97351.72
2023-01-12T16:15:24.867Z,97356.00
2023-01-12T16:17:52.524Z,97349.69
2023-01-12T16:20:21.167Z,97345.28
2023-01-12T16:22:49.126Z,97351.72
2023-01-12T16:25:16.675Z,97342.88
2023-01-12T16:27:44.382Z,97347.03
2023-01-12T16:30:16.081Z,97341.38
2023-01-12T16:32:46.962Z,97345.13
2023-01-12T16:35:15.739Z,97335.34
2023-01-12T16:37:44.768Z,97335.94
2023-01-12T16:40:12.950Z,97335.16
2023-01-12T16:42:40.199Z,97336.13
2023-01-12T16:45:08.109Z,97325.63
2023-01-12T16:47:35.544Z,97325.22
2023-01-12T16:50:03.892Z,97329.94
2023-01-12T16:52:31.237Z,97326.38
2023-01-12T16:54:58.540Z,97328.09
2023-01-12T16:57:25.846Z,97317.88
2023-01-12T16:59:53.164Z,97321.84
2023-01-12T17:02:20.623Z,97325.59
2023-01-12T17:04:52.455Z,97325.28
2023-01-12T17:07:20.149Z,97319.47
2023-01-12T17:09:47.715Z,97315.09
2023-01-12T17:12:15.093Z,97317.09
2023-01-12T17:14:42.469Z,97326.94
2023-01-12T17:17:11.467Z,97314.56
2023-01-12T17:19:43.052Z,97319.16
2023-01-12T17:22:11.527Z,97318.72
2023-01-12T17:24:41.174Z,97319.44
2023-01-12T17:27:10.722Z,97316.03
2023-01-12T17:29:38.502Z,97301.50
2023-01-12T17:32:07.228Z,97305.31
2023-01-12T17:34:38.990Z,97313.59
2023-01-12T17:37:09.828Z,97308.63
2023-01-12T17:39:43.086Z,97316.03
2023-01-12T17:42:35.847Z,97313.03
2023-01-12T17:45:04.710Z,97316.03
2023-01-12T17:47:32.489Z,97302.34
2023-01-12T17:50:00.384Z,97309.22
2023-01-12T17:52:27.893Z,97304.50
2023-01-12T17:54:55.435Z,97315.81
2023-01-12T17:57:22.890Z,97309.38
2023-01-12T17:59:51.135Z,97306.75
2023-01-12T18:02:19.438Z,97301.50
2023-01-12T18:04:47.172Z,97300.22
2023-01-12T18:07:14.623Z,97302.06
2023-01-12T18:09:42.078Z,97301.50
2023-01-12T18:12:10.672Z,97300.06
2023-01-12T18:14:38.665Z,97294.31
2023-01-12T18:17:06.385Z,97294.81
2023-01-12T18:19:33.948Z,97293.78
2023-01-12T18:22:06.014Z,97290.84
2023-01-12T18:24:34.695Z,97279.56
2023-01-12T18:27:03.217Z,97287.78
2023-01-12T18:29:30.809Z,97288.28
2023-01-12T18:31:58.194Z,97287.72
2023-01-12T18:34:25.770Z,97282.47
2023-01-12T18:36:53.214Z,97282.25
2023-01-12T18:39:21.238Z,97281.06
2023-01-12T18:42:08.829Z,97289.22
2023-01-12T18:44:40.374Z,97277.09
2023-01-12T18:47:26.451Z,97277.56
2023-01-12T18:49:58.640Z,97285.25
2023-01-12T18:52:44.635Z,97280.81
2023-01-12T18:55:12.073Z,97277.28
2023-01-12T18:57:39.330Z,97275.56
2023-01-12T19:00:18.099Z,97271.34
2023-01-12T19:02:45.869Z,97273.44
2023-01-12T19:05:25.494Z,97275.06
2023-01-12T19:07:58.908Z,97276.84
2023-01-12T19:10:28.251Z,97282.75
2023-01-12T19:13:14.241Z,97284.53
2023-01-12T19:16:00.946Z,97285.19
2023-01-12T19:18:29.104Z,97285.31
2023-01-12T19:21:22.534Z,97286.63
2023-01-12T19:24:08.467Z,97287.88
2023-01-12T19:26:54.757Z,97289.22
2023-01-12T19:29:22.248Z,97288.91
2023-01-12T19:31:49.754Z,97286.59
2023-01-12T19:34:17.352Z,97295.78
2023-01-12T19:36:44.939Z,97279.47
2023-01-12T19:39:13.238Z,97280.53
2023-01-12T19:41:59.339Z,97288.09
2023-01-12T19:44:26.938Z,97284.13
2023-01-12T19:46:54.269Z,97283.94
2023-01-12T19:49:21.635Z,97277.63
2023-01-12T19:51:49.964Z,97279.13
2023-01-12T19:54:17.262Z,97281.47
2023-01-12T19:56:47.216Z,97281.09
2023-01-12T19:59:14.780Z,97279.47
2023-01-12T20:01:42.156Z,97271.78
2023-01-12T20:04:09.612Z,97281.09
2023-01-12T20:06:36.885Z,97276.53
2023-01-12T20:09:04.490Z,97277.13
2023-01-12T20:11:31.841Z,97277.94
2023-01-12T20:13:59.725Z,97272.16
2023-01-12T20:16:27.787Z,97273.97
2023-01-12T20:18:57.167Z,97272.09
2023-01-12T20:21:24.654Z,97275.34
2023-01-12T20:23:52.061Z,97270.72
2023-01-12T20:26:19.509Z,97270.00
2023-01-12T20:28:46.837Z,97259.78
2023-01-12T20:31:16.399Z,97258.19
2023-01-12T20:33:43.759Z,97262.84
2023-01-12T20:36:13.269Z,97259.47
2023-01-12T20:38:41.216Z,97263.84
2023-01-12T20:41:10.609Z,97259.34
2023-01-12T20:43:38.786Z,97254.75
2023-01-12T20:46:11.620Z,97262.88
2023-01-12T20:48:41.400Z,97253.66
2023-01-12T20:51:11.550Z,97247.50
2023-01-12T20:53:39.702Z,97247.47
2023-01-12T20:56:08.360Z,97247.31
2023-01-12T20:58:36.535Z,97247.63
2023-01-12T21:01:13.020Z,97253.19
2023-01-12T21:03:40.748Z,97256.28
2023-01-12T21:06:13.954Z,97257.25
2023-01-12T21:08:45.222Z,97255.16
2023-01-12T21:11:17.131Z,97246.44
2023-01-12T21:13:45.726Z,97247.25
2023-01-12T21:16:18.016Z,97239.22
2023-01-12T21:18:46.328Z,97230.88
2023-01-12T21:21:13.651Z,97240.91
2023-01-12T21:23:40.931Z,97242.94
2023-01-12T21:26:09.807Z,97241.03
2023-01-12T21:28:39.964Z,97233.69
2023-01-12T21:31:10.758Z,97235.00
2023-01-12T21:33:38.135Z,97234.28
2023-01-12T21:36:06.158Z,97232.50
2023-01-12T21:38:33.393Z,97225.44
2023-01-12T21:41:03.814Z,97221.66
2023-01-12T21:43:32.458Z,97217.66
2023-01-12T21:46:10.092Z,97225.84
2023-01-12T21:48:37.610Z,97226.13
2023-01-12T21:51:07.737Z,97220.78
2023-01-12T21:53:35.621Z,97226.13
2023-01-12T21:56:05.343Z,97217.78
2023-01-12T21:58:35.333Z,97220.66
2023-01-12T22:01:14.561Z,97215.19
2023-01-12T22:03:42.727Z,97215.16
2023-01-12T22:06:13.002Z,97210.44
2023-01-12T22:08:41.992Z,97209.59
2023-01-12T22:11:13.098Z,97208.84
2023-01-12T22:13:41.330Z,97212.19
2023-01-12T22:16:13.244Z,97218.75
2023-01-12T22:18:47.123Z,97225.13
2023-01-12T22:21:15.787Z,97214.69
2023-01-12T22:23:43.677Z,97220.72
2023-01-12T22:26:14.306Z,97220.53
2023-01-12T22:28:44.106Z,97212.38
2023-01-12T22:31:23.140Z,97215.00
2023-01-12T22:34:04.859Z,97217.09
2023-01-12T22:36:37.096Z,97214.78
2023-01-12T22:39:04.633Z,97221.91
2023-01-12T22:41:31.816Z,97220.50
2023-01-12T22:43:59.655Z,97222.88
2023-01-12T22:46:28.586Z,97227.63
2023-01-12T22:48:59.377Z,97222.16
2023-01-12T22:51:28.172Z,97214.31
2023-01-12T22:53:56.592Z,97210.00
2023-01-12T22:56:24.135Z,97207.97
2023-01-12T22:58:55.278Z,97211.34
2023-01-12T23:01:25.638Z,97205.88
2023-01-12T23:03:58.395Z,97205.09
2023-01-12T23:06:26.634Z,97201.91
2023-01-12T23:08:54.007Z,97208.22
2023-01-12T23:11:25.349Z,97197.41
2023-01-12T23:13:54.929Z,97209.53
2023-01-12T23:16:22.787Z,97189.84
2023-01-12T23:18:50.439Z,97208.00
2023-01-12T23:21:25.028Z,97199.34
2023-01-12T23:23:58.228Z,97200.63
2023-01-12T23:26:32.833Z,97199.84
2023-01-12T23:29:03.123Z,97197.22
2023-01-12T23:31:33.510Z,97190.16
2023-01-12T23:34:01.537Z,97195.47
2023-01-12T23:36:30.527Z,97197.97
2023-01-12T23:39:01.382Z,97194.41
2023-01-12T23:41:34.025Z,97197.81
2023-01-12T23:44:04.290Z,97202.81
2023-01-12T23:46:36.675Z,97199.69
2023-01-12T23:49:04.889Z,97203.97
2023-01-12T23:51:32.712Z,97197.63
2023-01-12T23:54:01.828Z,97192.91
2023-01-12T23:56:32.537Z,97188.16
2023-01-12T23:58:59.754Z,97190.75
